Kennedale's Hourly Summary for Saturday, July 7, 2018
Hour Temp
(f)
RH
(%)
Solar Rad.
(MJ/m2)
Rainfall
(in)
Wind
(mph)
7/7/2018 12:00 AM 80 72 0 0 2.53
7/7/2018 1:00 AM 79 72 0 0 2.29
7/7/2018 2:00 AM 79 71 0 0 2.96
7/7/2018 3:00 AM 78 70 0 0 3.3
7/7/2018 4:00 AM 77 75 0 0 3.02
7/7/2018 5:00 AM 76 80 0 0 1.9
7/7/2018 6:00 AM 75 83 0.01 0 1.85
7/7/2018 7:00 AM 76 79 0.23 0 2.91
7/7/2018 8:00 AM 77 76 0.34 0 3.81
7/7/2018 9:00 AM 81 66 1.33 0 3.47
7/7/2018 10:00 AM 84 59 1.9 0 3.64
7/7/2018 11:00 AM 86 54 2.34 0 3.97
7/7/2018 12:00 PM 89 49 2.57 0 5.09
7/7/2018 1:00 PM 91 46 2.83 0 5.65
7/7/2018 2:00 PM 91 43 2.09 0 5.82
7/7/2018 3:00 PM 93 38 2.24 0 6.26
7/7/2018 4:00 PM 94 36 2.08 0 6.04
7/7/2018 5:00 PM 95 35 1.85 0 6.83
7/7/2018 6:00 PM 93 36 0.73 0 5.59
7/7/2018 7:00 PM 92 38 0.33 0 5.54
7/7/2018 8:00 PM 89 44 0.04 0 5.54
7/7/2018 9:00 PM 88 46 0 0 4.3
7/7/2018 10:00 PM 86 51 0 0 3.58
7/7/2018 11:00 PM 85 55 0 0 4.31
Data Summary 84 57 20.91 0.00 4.18